sensor_id;sensor_type;location;lat;lon;timestamp;P1;durP1;ratioP1;P2;durP2;ratioP2
34984;SDS011;21190;58.750;17.004;2023-11-21T00:00:03;4.55;;;2.97;;
34984;SDS011;21190;58.750;17.004;2023-11-21T00:02:36;7.95;;;2.83;;
34984;SDS011;21190;58.750;17.004;2023-11-21T00:05:09;5.63;;;2.72;;
34984;SDS011;21190;58.750;17.004;2023-11-21T00:07:39;6.28;;;3.03;;
34984;SDS011;21190;58.750;17.004;2023-11-21T00:10:08;8.07;;;3.08;;
34984;SDS011;21190;58.750;17.004;2023-11-21T00:12:37;6.50;;;3.17;;
34984;SDS011;21190;58.750;17.004;2023-11-21T00:15:04;7.20;;;3.03;;
34984;SDS011;21190;58.750;17.004;2023-11-21T00:17:32;4.18;;;2.55;;
34984;SDS011;21190;58.750;17.004;2023-11-21T00:19:59;6.20;;;2.85;;
34984;SDS011;21190;58.750;17.004;2023-11-21T00:22:26;4.18;;;2.50;;
34984;SDS011;21190;58.750;17.004;2023-11-21T00:24:53;5.57;;;2.78;;
34984;SDS011;21190;58.750;17.004;2023-11-21T00:27:20;3.78;;;2.35;;
34984;SDS011;21190;58.750;17.004;2023-11-21T00:29:46;7.03;;;2.90;;
34984;SDS011;21190;58.750;17.004;2023-11-21T00:32:13;4.97;;;3.17;;
34984;SDS011;21190;58.750;17.004;2023-11-21T00:34:40;5.40;;;2.80;;
34984;SDS011;21190;58.750;17.004;2023-11-21T00:37:09;5.38;;;2.90;;
34984;SDS011;21190;58.750;17.004;2023-11-21T00:39:36;4.20;;;2.67;;
34984;SDS011;21190;58.750;17.004;2023-11-21T00:42:03;7.80;;;3.05;;
34984;SDS011;21190;58.750;17.004;2023-11-21T00:44:31;7.10;;;2.55;;
34984;SDS011;21190;58.750;17.004;2023-11-21T00:46:58;4.97;;;2.63;;
34984;SDS011;21190;58.750;17.004;2023-11-21T00:49:25;7.03;;;3.08;;
34984;SDS011;21190;58.750;17.004;2023-11-21T00:51:52;7.82;;;3.17;;
34984;SDS011;21190;58.750;17.004;2023-11-21T00:54:19;6.72;;;2.97;;
34984;SDS011;21190;58.750;17.004;2023-11-21T00:56:46;5.50;;;2.40;;
34984;SDS011;21190;58.750;17.004;2023-11-21T00:59:14;5.40;;;3.03;;
34984;SDS011;21190;58.750;17.004;2023-11-21T01:01:41;4.82;;;2.97;;
34984;SDS011;21190;58.750;17.004;2023-11-21T01:04:08;7.65;;;3.33;;
34984;SDS011;21190;58.750;17.004;2023-11-21T01:06:35;4.68;;;2.90;;
34984;SDS011;21190;58.750;17.004;2023-11-21T01:09:02;5.75;;;3.08;;
34984;SDS011;21190;58.750;17.004;2023-11-21T01:11:34;7.68;;;3.55;;
34984;SDS011;21190;58.750;17.004;2023-11-21T01:14:03;6.43;;;3.28;;
34984;SDS011;21190;58.750;17.004;2023-11-21T01:16:31;5.50;;;3.22;;
34984;SDS011;21190;58.750;17.004;2023-11-21T01:19:01;7.07;;;3.38;;
34984;SDS011;21190;58.750;17.004;2023-11-21T01:21:28;6.78;;;3.45;;
34984;SDS011;21190;58.750;17.004;2023-11-21T01:23:55;6.38;;;3.45;;
34984;SDS011;21190;58.750;17.004;2023-11-21T01:26:22;7.22;;;3.33;;
34984;SDS011;21190;58.750;17.004;2023-11-21T01:28:49;8.75;;;3.42;;
34984;SDS011;21190;58.750;17.004;2023-11-21T01:31:16;5.78;;;3.40;;
34984;SDS011;21190;58.750;17.004;2023-11-21T01:33:44;6.57;;;3.75;;
34984;SDS011;21190;58.750;17.004;2023-11-21T01:36:11;5.78;;;3.20;;
34984;SDS011;21190;58.750;17.004;2023-11-21T01:38:38;7.47;;;3.47;;
34984;SDS011;21190;58.750;17.004;2023-11-21T01:41:05;7.60;;;3.90;;
34984;SDS011;21190;58.750;17.004;2023-11-21T01:43:37;7.03;;;4.15;;
34984;SDS011;21190;58.750;17.004;2023-11-21T01:46:05;5.40;;;3.42;;
34984;SDS011;21190;58.750;17.004;2023-11-21T01:48:32;9.07;;;4.07;;
34984;SDS011;21190;58.750;17.004;2023-11-21T01:51:01;5.30;;;3.40;;
34984;SDS011;21190;58.750;17.004;2023-11-21T01:53:28;7.30;;;3.75;;
34984;SDS011;21190;58.750;17.004;2023-11-21T01:55:56;6.43;;;3.40;;
34984;SDS011;21190;58.750;17.004;2023-11-21T01:58:24;8.60;;;3.72;;
34984;SDS011;21190;58.750;17.004;2023-11-21T02:00:51;7.40;;;3.80;;
34984;SDS011;21190;58.750;17.004;2023-11-21T02:03:21;7.82;;;3.90;;
34984;SDS011;21190;58.750;17.004;2023-11-21T02:05:48;7.50;;;4.15;;
34984;SDS011;21190;58.750;17.004;2023-11-21T02:08:15;7.30;;;3.95;;
34984;SDS011;21190;58.750;17.004;2023-11-21T02:10:42;9.07;;;4.28;;
34984;SDS011;21190;58.750;17.004;2023-11-21T02:13:09;8.57;;;4.57;;
34984;SDS011;21190;58.750;17.004;2023-11-21T02:15:37;11.25;;;5.47;;
34984;SDS011;21190;58.750;17.004;2023-11-21T02:18:05;7.82;;;4.03;;
34984;SDS011;21190;58.750;17.004;2023-11-21T02:20:32;7.95;;;4.20;;
34984;SDS011;21190;58.750;17.004;2023-11-21T02:23:01;8.80;;;5.28;;
34984;SDS011;21190;58.750;17.004;2023-11-21T02:25:29;7.60;;;4.38;;
34984;SDS011;21190;58.750;17.004;2023-11-21T02:27:59;8.23;;;4.43;;
34984;SDS011;21190;58.750;17.004;2023-11-21T02:30:27;7.93;;;4.15;;
34984;SDS011;21190;58.750;17.004;2023-11-21T02:32:55;9.32;;;4.32;;
34984;SDS011;21190;58.750;17.004;2023-11-21T02:35:25;8.40;;;4.97;;
34984;SDS011;21190;58.750;17.004;2023-11-21T02:37:52;5.43;;;3.60;;
34984;SDS011;21190;58.750;17.004;2023-11-21T02:40:20;7.00;;;4.15;;
34984;SDS011;21190;58.750;17.004;2023-11-21T02:42:47;6.68;;;3.97;;
34984;SDS011;21190;58.750;17.004;2023-11-21T02:45:17;10.13;;;4.40;;
34984;SDS011;21190;58.750;17.004;2023-11-21T02:47:47;8.85;;;4.00;;
34984;SDS011;21190;58.750;17.004;2023-11-21T02:50:15;5.90;;;3.63;;
34984;SDS011;21190;58.750;17.004;2023-11-21T02:52:42;6.47;;;4.15;;
34984;SDS011;21190;58.750;17.004;2023-11-21T02:55:10;8.38;;;4.05;;
34984;SDS011;21190;58.750;17.004;2023-11-21T02:57:37;7.45;;;3.50;;
34984;SDS011;21190;58.750;17.004;2023-11-21T03:00:04;9.63;;;3.63;;
34984;SDS011;21190;58.750;17.004;2023-11-21T03:02:34;6.22;;;3.60;;
34984;SDS011;21190;58.750;17.004;2023-11-21T03:05:06;6.45;;;3.92;;
34984;SDS011;21190;58.750;17.004;2023-11-21T03:07:39;6.85;;;3.20;;
34984;SDS011;21190;58.750;17.004;2023-11-21T03:10:07;7.65;;;3.50;;
34984;SDS011;21190;58.750;17.004;2023-11-21T03:12:38;8.60;;;3.30;;
34984;SDS011;21190;58.750;17.004;2023-11-21T03:15:06;5.45;;;3.30;;
34984;SDS011;21190;58.750;17.004;2023-11-21T03:17:34;6.03;;;2.80;;
34984;SDS011;21190;58.750;17.004;2023-11-21T03:20:01;5.80;;;3.45;;
34984;SDS011;21190;58.750;17.004;2023-11-21T03:22:30;6.32;;;3.67;;
34984;SDS011;21190;58.750;17.004;2023-11-21T03:24:57;8.65;;;3.38;;
34984;SDS011;21190;58.750;17.004;2023-11-21T03:27:24;5.93;;;3.40;;
34984;SDS011;21190;58.750;17.004;2023-11-21T03:29:51;6.35;;;3.83;;
34984;SDS011;21190;58.750;17.004;2023-11-21T03:32:18;5.90;;;3.33;;
34984;SDS011;21190;58.750;17.004;2023-11-21T03:35:06;6.43;;;3.75;;
34984;SDS011;21190;58.750;17.004;2023-11-21T03:37:33;6.40;;;3.25;;
34984;SDS011;21190;58.750;17.004;2023-11-21T03:40:00;6.60;;;3.10;;
34984;SDS011;21190;58.750;17.004;2023-11-21T03:42:31;5.75;;;3.45;;
34984;SDS011;21190;58.750;17.004;2023-11-21T03:44:59;7.45;;;3.40;;
34984;SDS011;21190;58.750;17.004;2023-11-21T03:47:26;5.40;;;3.15;;
34984;SDS011;21190;58.750;17.004;2023-11-21T03:49:54;5.90;;;3.40;;
34984;SDS011;21190;58.750;17.004;2023-11-21T03:52:21;5.70;;;3.25;;
34984;SDS011;21190;58.750;17.004;2023-11-21T03:54:48;6.10;;;3.20;;
34984;SDS011;21190;58.750;17.004;2023-11-21T03:57:15;7.20;;;3.55;;
34984;SDS011;21190;58.750;17.004;2023-11-21T03:59:43;5.20;;;3.25;;
34984;SDS011;21190;58.750;17.004;2023-11-21T04:02:10;5.55;;;3.17;;
34984;SDS011;21190;58.750;17.004;2023-11-21T04:04:37;4.97;;;3.22;;
34984;SDS011;21190;58.750;17.004;2023-11-21T04:07:04;6.07;;;3.45;;
34984;SDS011;21190;58.750;17.004;2023-11-21T04:09:31;4.78;;;3.25;;
34984;SDS011;21190;58.750;17.004;2023-11-21T04:11:58;8.35;;;3.65;;
34984;SDS011;21190;58.750;17.004;2023-11-21T04:14:25;6.20;;;3.60;;
34984;SDS011;21190;58.750;17.004;2023-11-21T04:16:53;5.43;;;3.45;;
34984;SDS011;21190;58.750;17.004;2023-11-21T04:19:20;4.78;;;3.08;;
34984;SDS011;21190;58.750;17.004;2023-11-21T04:21:47;4.95;;;3.33;;
34984;SDS011;21190;58.750;17.004;2023-11-21T04:24:15;6.63;;;3.55;;
34984;SDS011;21190;58.750;17.004;2023-11-21T04:26:43;5.78;;;2.88;;
34984;SDS011;21190;58.750;17.004;2023-11-21T04:29:10;5.93;;;3.50;;
34984;SDS011;21190;58.750;17.004;2023-11-21T04:31:37;3.42;;;2.47;;
34984;SDS011;21190;58.750;17.004;2023-11-21T04:34:04;5.50;;;3.25;;
34984;SDS011;21190;58.750;17.004;2023-11-21T04:36:31;5.07;;;3.22;;
34984;SDS011;21190;58.750;17.004;2023-11-21T04:38:58;7.18;;;3.20;;
34984;SDS011;21190;58.750;17.004;2023-11-21T04:41:25;4.18;;;2.63;;
34984;SDS011;21190;58.750;17.004;2023-11-21T04:43:52;5.82;;;3.10;;
34984;SDS011;21190;58.750;17.004;2023-11-21T04:46:19;4.80;;;2.58;;
34984;SDS011;21190;58.750;17.004;2023-11-21T04:48:47;3.20;;;2.33;;
34984;SDS011;21190;58.750;17.004;2023-11-21T04:51:14;4.53;;;2.90;;
34984;SDS011;21190;58.750;17.004;2023-11-21T04:53:41;6.18;;;3.03;;
34984;SDS011;21190;58.750;17.004;2023-11-21T04:56:08;3.85;;;2.80;;
34984;SDS011;21190;58.750;17.004;2023-11-21T04:58:35;5.43;;;2.90;;
34984;SDS011;21190;58.750;17.004;2023-11-21T05:01:02;6.00;;;2.80;;
34984;SDS011;21190;58.750;17.004;2023-11-21T05:03:33;4.30;;;2.70;;
34984;SDS011;21190;58.750;17.004;2023-11-21T05:06:01;5.35;;;2.63;;
34984;SDS011;21190;58.750;17.004;2023-11-21T05:08:28;4.22;;;2.50;;
34984;SDS011;21190;58.750;17.004;2023-11-21T05:10:55;4.95;;;3.10;;
34984;SDS011;21190;58.750;17.004;2023-11-21T05:13:23;4.60;;;2.72;;
34984;SDS011;21190;58.750;17.004;2023-11-21T05:15:54;4.68;;;2.85;;
34984;SDS011;21190;58.750;17.004;2023-11-21T05:18:24;5.20;;;3.17;;
34984;SDS011;21190;58.750;17.004;2023-11-21T05:20:56;4.22;;;2.60;;
34984;SDS011;21190;58.750;17.004;2023-11-21T05:23:23;7.15;;;3.40;;
34984;SDS011;21190;58.750;17.004;2023-11-21T05:25:50;5.07;;;2.78;;
34984;SDS011;21190;58.750;17.004;2023-11-21T05:28:17;5.32;;;2.92;;
34984;SDS011;21190;58.750;17.004;2023-11-21T05:30:44;4.97;;;2.80;;
34984;SDS011;21190;58.750;17.004;2023-11-21T05:33:11;5.63;;;2.83;;
34984;SDS011;21190;58.750;17.004;2023-11-21T05:35:38;3.05;;;2.33;;
34984;SDS011;21190;58.750;17.004;2023-11-21T05:38:05;4.10;;;2.42;;
34984;SDS011;21190;58.750;17.004;2023-11-21T05:40:32;4.38;;;2.47;;
34984;SDS011;21190;58.750;17.004;2023-11-21T05:42:59;4.00;;;2.47;;
34984;SDS011;21190;58.750;17.004;2023-11-21T05:45:26;6.50;;;2.95;;
34984;SDS011;21190;58.750;17.004;2023-11-21T05:47:57;4.03;;;2.83;;
34984;SDS011;21190;58.750;17.004;2023-11-21T05:50:25;5.07;;;2.60;;
34984;SDS011;21190;58.750;17.004;2023-11-21T05:52:52;4.30;;;2.75;;
34984;SDS011;21190;58.750;17.004;2023-11-21T05:55:19;4.70;;;2.95;;
34984;SDS011;21190;58.750;17.004;2023-11-21T05:57:52;4.65;;;3.10;;
34984;SDS011;21190;58.750;17.004;2023-11-21T06:00:20;5.82;;;2.97;;
34984;SDS011;21190;58.750;17.004;2023-11-21T06:02:52;4.15;;;2.40;;
34984;SDS011;21190;58.750;17.004;2023-11-21T06:05:21;3.97;;;2.45;;
34984;SDS011;21190;58.750;17.004;2023-11-21T06:07:50;5.18;;;3.15;;
34984;SDS011;21190;58.750;17.004;2023-11-21T06:10:22;4.80;;;3.03;;
34984;SDS011;21190;58.750;17.004;2023-11-21T06:12:51;3.75;;;2.47;;
34984;SDS011;21190;58.750;17.004;2023-11-21T06:15:19;4.82;;;2.90;;
34984;SDS011;21190;58.750;17.004;2023-11-21T06:17:48;3.67;;;2.50;;
34984;SDS011;21190;58.750;17.004;2023-11-21T06:20:19;4.70;;;2.97;;
34984;SDS011;21190;58.750;17.004;2023-11-21T06:22:47;4.25;;;2.45;;
34984;SDS011;21190;58.750;17.004;2023-11-21T06:25:16;3.95;;;2.90;;
34984;SDS011;21190;58.750;17.004;2023-11-21T06:27:44;6.60;;;2.90;;
34984;SDS011;21190;58.750;17.004;2023-11-21T06:30:14;3.17;;;2.53;;
34984;SDS011;21190;58.750;17.004;2023-11-21T06:32:42;5.57;;;2.65;;
34984;SDS011;21190;58.750;17.004;2023-11-21T06:35:13;6.13;;;2.50;;
34984;SDS011;21190;58.750;17.004;2023-11-21T06:37:43;3.58;;;2.55;;
34984;SDS011;21190;58.750;17.004;2023-11-21T06:40:18;3.72;;;2.30;;
34984;SDS011;21190;58.750;17.004;2023-11-21T06:42:47;4.63;;;2.75;;
34984;SDS011;21190;58.750;17.004;2023-11-21T06:45:15;5.07;;;3.13;;
34984;SDS011;21190;58.750;17.004;2023-11-21T06:47:43;5.18;;;2.90;;
34984;SDS011;21190;58.750;17.004;2023-11-21T06:50:11;7.25;;;2.90;;
34984;SDS011;21190;58.750;17.004;2023-11-21T06:52:38;3.60;;;2.45;;
34984;SDS011;21190;58.750;17.004;2023-11-21T06:55:05;3.15;;;2.30;;
34984;SDS011;21190;58.750;17.004;2023-11-21T06:57:35;6.47;;;2.72;;
34984;SDS011;21190;58.750;17.004;2023-11-21T07:00:02;6.22;;;2.90;;
34984;SDS011;21190;58.750;17.004;2023-11-21T07:02:30;3.53;;;2.42;;
34984;SDS011;21190;58.750;17.004;2023-11-21T07:04:57;4.22;;;2.78;;
34984;SDS011;21190;58.750;17.004;2023-11-21T07:07:24;4.47;;;2.58;;
34984;SDS011;21190;58.750;17.004;2023-11-21T07:09:51;3.88;;;2.90;;
34984;SDS011;21190;58.750;17.004;2023-11-21T07:12:18;4.60;;;3.05;;
34984;SDS011;21190;58.750;17.004;2023-11-21T07:14:45;5.70;;;2.83;;
34984;SDS011;21190;58.750;17.004;2023-11-21T07:17:12;4.25;;;2.85;;
34984;SDS011;21190;58.750;17.004;2023-11-21T07:19:40;4.50;;;2.80;;
34984;SDS011;21190;58.750;17.004;2023-11-21T07:22:08;4.22;;;3.00;;
34984;SDS011;21190;58.750;17.004;2023-11-21T07:24:35;3.80;;;2.50;;
34984;SDS011;21190;58.750;17.004;2023-11-21T07:27:03;3.97;;;2.72;;
34984;SDS011;21190;58.750;17.004;2023-11-21T07:29:30;3.70;;;2.58;;
34984;SDS011;21190;58.750;17.004;2023-11-21T07:31:57;4.07;;;2.80;;
34984;SDS011;21190;58.750;17.004;2023-11-21T07:34:25;6.00;;;2.60;;
34984;SDS011;21190;58.750;17.004;2023-11-21T07:36:52;4.35;;;2.35;;
34984;SDS011;21190;58.750;17.004;2023-11-21T07:39:19;3.83;;;2.97;;
34984;SDS011;21190;58.750;17.004;2023-11-21T07:41:46;5.75;;;2.83;;
34984;SDS011;21190;58.750;17.004;2023-11-21T07:44:18;4.90;;;2.88;;
34984;SDS011;21190;58.750;17.004;2023-11-21T07:46:46;5.28;;;2.90;;
34984;SDS011;21190;58.750;17.004;2023-11-21T07:49:14;3.45;;;2.30;;
34984;SDS011;21190;58.750;17.004;2023-11-21T07:51:43;6.07;;;2.40;;
34984;SDS011;21190;58.750;17.004;2023-11-21T07:54:10;6.25;;;2.28;;
34984;SDS011;21190;58.750;17.004;2023-11-21T07:56:37;3.90;;;2.10;;
34984;SDS011;21190;58.750;17.004;2023-11-21T07:59:05;4.35;;;2.10;;
34984;SDS011;21190;58.750;17.004;2023-11-21T08:01:32;3.95;;;2.50;;
34984;SDS011;21190;58.750;17.004;2023-11-21T08:03:59;3.25;;;2.38;;
34984;SDS011;21190;58.750;17.004;2023-11-21T08:06:30;5.75;;;2.60;;
34984;SDS011;21190;58.750;17.004;2023-11-21T08:08:57;4.32;;;2.53;;
34984;SDS011;21190;58.750;17.004;2023-11-21T08:11:25;6.25;;;3.22;;
34984;SDS011;21190;58.750;17.004;2023-11-21T08:13:57;3.78;;;2.53;;
34984;SDS011;21190;58.750;17.004;2023-11-21T08:16:25;3.70;;;2.70;;
34984;SDS011;21190;58.750;17.004;2023-11-21T08:18:54;3.45;;;2.33;;
34984;SDS011;21190;58.750;17.004;2023-11-21T08:21:21;5.75;;;2.80;;
34984;SDS011;21190;58.750;17.004;2023-11-21T08:23:50;4.70;;;2.97;;
34984;SDS011;21190;58.750;17.004;2023-11-21T08:26:21;3.47;;;2.40;;
34984;SDS011;21190;58.750;17.004;2023-11-21T08:28:49;5.38;;;3.08;;
34984;SDS011;21190;58.750;17.004;2023-11-21T08:31:23;5.60;;;2.63;;
34984;SDS011;21190;58.750;17.004;2023-11-21T08:33:52;3.25;;;2.42;;
34984;SDS011;21190;58.750;17.004;2023-11-21T08:36:22;5.20;;;2.85;;
34984;SDS011;21190;58.750;17.004;2023-11-21T08:38:50;4.25;;;2.33;;
34984;SDS011;21190;58.750;17.004;2023-11-21T08:41:20;3.95;;;2.53;;
34984;SDS011;21190;58.750;17.004;2023-11-21T08:43:49;2.60;;;2.22;;
34984;SDS011;21190;58.750;17.004;2023-11-21T08:46:17;2.90;;;2.33;;
34984;SDS011;21190;58.750;17.004;2023-11-21T08:48:44;3.85;;;2.58;;
34984;SDS011;21190;58.750;17.004;2023-11-21T08:51:12;4.85;;;2.70;;
34984;SDS011;21190;58.750;17.004;2023-11-21T08:53:40;4.03;;;2.78;;
34984;SDS011;21190;58.750;17.004;2023-11-21T08:56:07;5.75;;;2.67;;
34984;SDS011;21190;58.750;17.004;2023-11-21T08:58:38;4.25;;;2.28;;
34984;SDS011;21190;58.750;17.004;2023-11-21T09:01:05;3.65;;;2.50;;
34984;SDS011;21190;58.750;17.004;2023-11-21T09:03:33;4.70;;;2.47;;
34984;SDS011;21190;58.750;17.004;2023-11-21T09:06:01;4.57;;;2.35;;
34984;SDS011;21190;58.750;17.004;2023-11-21T09:08:28;4.15;;;2.40;;
34984;SDS011;21190;58.750;17.004;2023-11-21T09:10:55;3.72;;;2.42;;
34984;SDS011;21190;58.750;17.004;2023-11-21T09:13:23;4.43;;;2.70;;
34984;SDS011;21190;58.750;17.004;2023-11-21T09:15:51;3.47;;;2.60;;
34984;SDS011;21190;58.750;17.004;2023-11-21T09:18:18;3.70;;;2.53;;
34984;SDS011;21190;58.750;17.004;2023-11-21T09:20:46;5.35;;;2.95;;
34984;SDS011;21190;58.750;17.004;2023-11-21T09:23:13;5.28;;;2.75;;
34984;SDS011;21190;58.750;17.004;2023-11-21T09:25:40;5.55;;;3.08;;
34984;SDS011;21190;58.750;17.004;2023-11-21T09:28:07;4.43;;;3.10;;
34984;SDS011;21190;58.750;17.004;2023-11-21T09:30:35;5.35;;;2.70;;
34984;SDS011;21190;58.750;17.004;2023-11-21T09:33:02;6.10;;;3.03;;
34984;SDS011;21190;58.750;17.004;2023-11-21T09:35:34;4.00;;;2.53;;
34984;SDS011;21190;58.750;17.004;2023-11-21T09:38:01;4.70;;;3.17;;
34984;SDS011;21190;58.750;17.004;2023-11-21T09:40:32;6.63;;;2.63;;
34984;SDS011;21190;58.750;17.004;2023-11-21T09:42:59;3.75;;;2.60;;
34984;SDS011;21190;58.750;17.004;2023-11-21T09:45:29;6.55;;;3.00;;
34984;SDS011;21190;58.750;17.004;2023-11-21T09:48:01;4.53;;;2.47;;
34984;SDS011;21190;58.750;17.004;2023-11-21T09:50:29;5.35;;;2.72;;
34984;SDS011;21190;58.750;17.004;2023-11-21T09:53:03;6.07;;;2.78;;
34984;SDS011;21190;58.750;17.004;2023-11-21T09:55:43;4.88;;;2.70;;
34984;SDS011;21190;58.750;17.004;2023-11-21T09:58:11;5.00;;;2.38;;
34984;SDS011;21190;58.750;17.004;2023-11-21T10:00:42;7.50;;;2.97;;
34984;SDS011;21190;58.750;17.004;2023-11-21T10:03:10;4.03;;;2.50;;
34984;SDS011;21190;58.750;17.004;2023-11-21T10:05:39;3.30;;;2.40;;
34984;SDS011;21190;58.750;17.004;2023-11-21T10:08:11;3.72;;;2.30;;
34984;SDS011;21190;58.750;17.004;2023-11-21T10:10:45;4.72;;;2.42;;
34984;SDS011;21190;58.750;17.004;2023-11-21T10:13:15;4.90;;;2.33;;
34984;SDS011;21190;58.750;17.004;2023-11-21T10:15:51;3.35;;;2.25;;
34984;SDS011;21190;58.750;17.004;2023-11-21T10:18:19;7.20;;;2.50;;
34984;SDS011;21190;58.750;17.004;2023-11-21T10:20:49;4.18;;;2.50;;
34984;SDS011;21190;58.750;17.004;2023-11-21T10:23:20;4.28;;;2.67;;
34984;SDS011;21190;58.750;17.004;2023-11-21T10:25:50;4.40;;;2.63;;
34984;SDS011;21190;58.750;17.004;2023-11-21T10:28:19;5.97;;;3.60;;
34984;SDS011;21190;58.750;17.004;2023-11-21T10:30:47;5.72;;;3.20;;
34984;SDS011;21190;58.750;17.004;2023-11-21T10:33:14;7.43;;;3.47;;
34984;SDS011;21190;58.750;17.004;2023-11-21T10:38:20;7.72;;;3.70;;
34984;SDS011;21190;58.750;17.004;2023-11-21T10:40:49;5.45;;;2.83;;
34984;SDS011;21190;58.750;17.004;2023-11-21T10:43:17;6.00;;;3.40;;
34984;SDS011;21190;58.750;17.004;2023-11-21T10:45:45;4.65;;;2.90;;
34984;SDS011;21190;58.750;17.004;2023-11-21T10:48:13;7.82;;;3.47;;
34984;SDS011;21190;58.750;17.004;2023-11-21T10:50:44;4.65;;;2.80;;
34984;SDS011;21190;58.750;17.004;2023-11-21T10:53:13;8.85;;;3.38;;
34984;SDS011;21190;58.750;17.004;2023-11-21T10:55:40;4.38;;;3.05;;
34984;SDS011;21190;58.750;17.004;2023-11-21T10:58:08;6.50;;;3.53;;
34984;SDS011;21190;58.750;17.004;2023-11-21T11:00:39;6.30;;;3.30;;
34984;SDS011;21190;58.750;17.004;2023-11-21T11:03:07;4.97;;;3.30;;
34984;SDS011;21190;58.750;17.004;2023-11-21T11:05:45;8.60;;;3.90;;
34984;SDS011;21190;58.750;17.004;2023-11-21T11:08:19;5.15;;;3.25;;
34984;SDS011;21190;58.750;17.004;2023-11-21T11:10:53;5.55;;;3.50;;
34984;SDS011;21190;58.750;17.004;2023-11-21T11:13:21;5.47;;;3.35;;
34984;SDS011;21190;58.750;17.004;2023-11-21T11:15:49;6.93;;;3.95;;
34984;SDS011;21190;58.750;17.004;2023-11-21T11:18:17;10.18;;;4.43;;
34984;SDS011;21190;58.750;17.004;2023-11-21T11:20:47;6.68;;;3.08;;
34984;SDS011;21190;58.750;17.004;2023-11-21T11:23:31;7.35;;;3.85;;
34984;SDS011;21190;58.750;17.004;2023-11-21T11:26:28;9.10;;;4.77;;
34984;SDS011;21190;58.750;17.004;2023-11-21T11:29:23;7.60;;;4.57;;
34984;SDS011;21190;58.750;17.004;2023-11-21T11:32:06;5.15;;;3.42;;
34984;SDS011;21190;58.750;17.004;2023-11-21T11:34:48;5.45;;;3.42;;
34984;SDS011;21190;58.750;17.004;2023-11-21T11:37:24;6.03;;;3.17;;
34984;SDS011;21190;58.750;17.004;2023-11-21T11:39:51;8.95;;;3.92;;
34984;SDS011;21190;58.750;17.004;2023-11-21T11:42:20;6.72;;;3.53;;
34984;SDS011;21190;58.750;17.004;2023-11-21T11:44:50;6.20;;;3.60;;
34984;SDS011;21190;58.750;17.004;2023-11-21T11:47:20;9.48;;;3.67;;
34984;SDS011;21190;58.750;17.004;2023-11-21T11:49:55;6.47;;;3.60;;
34984;SDS011;21190;58.750;17.004;2023-11-21T11:52:34;5.50;;;3.40;;
34984;SDS011;21190;58.750;17.004;2023-11-21T11:55:02;7.25;;;3.03;;
34984;SDS011;21190;58.750;17.004;2023-11-21T11:57:34;7.28;;;3.65;;
34984;SDS011;21190;58.750;17.004;2023-11-21T12:02:38;6.53;;;3.70;;
34984;SDS011;21190;58.750;17.004;2023-11-21T12:05:11;5.93;;;3.35;;
34984;SDS011;21190;58.750;17.004;2023-11-21T12:07:55;6.05;;;3.47;;
34984;SDS011;21190;58.750;17.004;2023-11-21T12:10:24;6.72;;;3.80;;
34984;SDS011;21190;58.750;17.004;2023-11-21T12:12:56;6.85;;;3.30;;
34984;SDS011;21190;58.750;17.004;2023-11-21T12:15:25;5.05;;;2.95;;
34984;SDS011;21190;58.750;17.004;2023-11-21T12:17:55;7.93;;;3.95;;
34984;SDS011;21190;58.750;17.004;2023-11-21T12:20:23;6.85;;;2.90;;
34984;SDS011;21190;58.750;17.004;2023-11-21T12:22:52;5.32;;;3.33;;
34984;SDS011;21190;58.750;17.004;2023-11-21T12:25:21;4.90;;;3.30;;
34984;SDS011;21190;58.750;17.004;2023-11-21T12:27:49;6.40;;;3.60;;
34984;SDS011;21190;58.750;17.004;2023-11-21T12:30:18;6.03;;;3.25;;
34984;SDS011;21190;58.750;17.004;2023-11-21T12:32:52;4.55;;;3.13;;
34984;SDS011;21190;58.750;17.004;2023-11-21T12:35:22;8.50;;;3.13;;
34984;SDS011;21190;58.750;17.004;2023-11-21T12:37:51;5.53;;;2.67;;
34984;SDS011;21190;58.750;17.004;2023-11-21T12:40:20;4.95;;;3.00;;
34984;SDS011;21190;58.750;17.004;2023-11-21T12:42:52;5.72;;;3.58;;
34984;SDS011;21190;58.750;17.004;2023-11-21T12:45:24;4.78;;;2.63;;
34984;SDS011;21190;58.750;17.004;2023-11-21T12:50:24;5.40;;;3.13;;
34984;SDS011;21190;58.750;17.004;2023-11-21T12:52:58;5.40;;;2.72;;
34984;SDS011;21190;58.750;17.004;2023-11-21T12:55:32;3.92;;;2.30;;
34984;SDS011;21190;58.750;17.004;2023-11-21T12:58:08;5.20;;;3.15;;
34984;SDS011;21190;58.750;17.004;2023-11-21T13:00:47;3.75;;;2.60;;
34984;SDS011;21190;58.750;17.004;2023-11-21T13:03:16;3.42;;;2.35;;
34984;SDS011;21190;58.750;17.004;2023-11-21T13:05:46;4.60;;;2.65;;
34984;SDS011;21190;58.750;17.004;2023-11-21T13:08:21;4.45;;;2.53;;
34984;SDS011;21190;58.750;17.004;2023-11-21T13:10:52;7.50;;;3.17;;
34984;SDS011;21190;58.750;17.004;2023-11-21T13:13:24;4.60;;;2.47;;
34984;SDS011;21190;58.750;17.004;2023-11-21T13:15:55;7.05;;;2.90;;
34984;SDS011;21190;58.750;17.004;2023-11-21T13:18:32;3.25;;;2.47;;
34984;SDS011;21190;58.750;17.004;2023-11-21T13:21:01;3.47;;;2.25;;
34984;SDS011;21190;58.750;17.004;2023-11-21T13:23:43;3.65;;;1.85;;
34984;SDS011;21190;58.750;17.004;2023-11-21T13:26:13;7.43;;;2.47;;
34984;SDS011;21190;58.750;17.004;2023-11-21T13:28:42;3.83;;;2.80;;
34984;SDS011;21190;58.750;17.004;2023-11-21T13:31:13;5.07;;;2.33;;
34984;SDS011;21190;58.750;17.004;2023-11-21T13:33:53;3.70;;;2.15;;
34984;SDS011;21190;58.750;17.004;2023-11-21T13:36:25;5.28;;;1.95;;
34984;SDS011;21190;58.750;17.004;2023-11-21T13:38:56;3.72;;;2.35;;
34984;SDS011;21190;58.750;17.004;2023-11-21T13:41:25;2.95;;;2.05;;
34984;SDS011;21190;58.750;17.004;2023-11-21T13:43:57;5.13;;;1.98;;
34984;SDS011;21190;58.750;17.004;2023-11-21T13:46:53;3.40;;;2.00;;
34984;SDS011;21190;58.750;17.004;2023-11-21T13:49:23;5.63;;;2.53;;
34984;SDS011;21190;58.750;17.004;2023-11-21T13:51:50;4.43;;;1.95;;
34984;SDS011;21190;58.750;17.004;2023-11-21T13:54:21;3.55;;;2.17;;
34984;SDS011;21190;58.750;17.004;2023-11-21T13:56:50;3.92;;;2.03;;
34984;SDS011;21190;58.750;17.004;2023-11-21T13:59:17;3.33;;;2.22;;
34984;SDS011;21190;58.750;17.004;2023-11-21T14:01:53;3.17;;;2.20;;
34984;SDS011;21190;58.750;17.004;2023-11-21T14:04:23;4.45;;;2.92;;
34984;SDS011;21190;58.750;17.004;2023-11-21T14:06:59;4.10;;;2.70;;
34984;SDS011;21190;58.750;17.004;2023-11-21T14:09:37;6.15;;;3.00;;
34984;SDS011;21190;58.750;17.004;2023-11-21T14:12:10;5.55;;;2.45;;
34984;SDS011;21190;58.750;17.004;2023-11-21T14:14:41;5.03;;;2.85;;
34984;SDS011;21190;58.750;17.004;2023-11-21T14:17:08;5.80;;;2.70;;
34984;SDS011;21190;58.750;17.004;2023-11-21T14:19:37;9.77;;;3.40;;
34984;SDS011;21190;58.750;17.004;2023-11-21T14:22:07;7.22;;;3.10;;
34984;SDS011;21190;58.750;17.004;2023-11-21T14:24:36;4.93;;;2.45;;
34984;SDS011;21190;58.750;17.004;2023-11-21T14:27:03;5.90;;;3.40;;
34984;SDS011;21190;58.750;17.004;2023-11-21T14:29:31;6.00;;;3.13;;
34984;SDS011;21190;58.750;17.004;2023-11-21T14:32:05;4.32;;;2.85;;
34984;SDS011;21190;58.750;17.004;2023-11-21T14:34:33;5.85;;;3.30;;
34984;SDS011;21190;58.750;17.004;2023-11-21T14:37:00;5.68;;;3.05;;
34984;SDS011;21190;58.750;17.004;2023-11-21T14:39:29;5.50;;;3.15;;
34984;SDS011;21190;58.750;17.004;2023-11-21T14:41:56;7.70;;;3.88;;
34984;SDS011;21190;58.750;17.004;2023-11-21T14:44:24;9.85;;;4.00;;
34984;SDS011;21190;58.750;17.004;2023-11-21T14:46:55;7.22;;;3.10;;
34984;SDS011;21190;58.750;17.004;2023-11-21T14:49:25;6.85;;;3.90;;
34984;SDS011;21190;58.750;17.004;2023-11-21T14:51:54;6.20;;;2.75;;